GRZ552 Details

Departure: Ted Stevens Anchorage International Airport (PANC)
Arrival: (PACV)
Route: TURNA7 TED J133 JOH


Current Weather Information
PANC 251153Z 20003KT 4SM FU OVC080 12/08 A2986 RMK AO2 SLP111 T01170078 10144 20100 51010
PACV 251153Z 00000KT 10SM FEW023 FEW031 SCT050 07/06 A2995 RMK AO2 SLP142 70001 T00720056 10133 20067 53013